Time;durP1;ratioP1;P1;durP2;ratioP2;P2;SDS_P1;SDS_P2;PMS_P1;PMS_P2;Temp;Humidity;BMP_temperature;BMP_pressure;BME280_temperature;BME280_humidity;BME280_pressure;Samples;Min_cycle;Max_cycle;Signal;HPM_P1;HPM_P2
2020/12/15 00:01:58;;;;;;;25.52;16.83;;;5.50;17.40;;;;;;5051777;28;20188;-56
2020/12/15 00:04:26;;;;;;;25.30;17.02;;;5.60;17.30;;;;;;5052222;28;20208;-58
2020/12/15 00:06:52;;;;;;;24.35;16.08;;;5.60;14.60;;;;;;5052385;28;20186;-54
2020/12/15 00:09:19;;;;;;;26.02;17.77;;;5.50;16.30;;;;;;5052278;28;20270;-53
2020/12/15 00:11:44;;;;;;;23.48;16.38;;;5.50;15.20;;;;;;5051920;28;20659;-54
2020/12/15 00:14:10;;;;;;;25.10;16.63;;;5.50;16.00;;;;;;5051937;28;20210;-55
2020/12/15 00:16:35;;;;;;;25.93;16.77;;;5.50;16.40;;;;;;5041426;28;20183;-54
2020/12/15 00:19:01;;;;;;;24.53;16.53;;;5.50;16.40;;;;;;5049897;28;20178;-57
2020/12/15 00:21:28;;;;;;;26.30;16.60;;;5.50;18.30;;;;;;5052565;28;20174;-58
2020/12/15 00:23:55;;;;;;;25.15;17.13;;;5.50;16.20;;;;;;5052147;28;20691;-55
2020/12/15 00:26:23;;;;;;;21.75;14.95;;;5.50;16.50;;;;;;5051160;28;20247;-57
2020/12/15 00:28:49;;;;;;;26.48;16.10;;;5.60;14.50;;;;;;5050745;28;20216;-54
2020/12/15 00:31:16;;;;;;;23.27;15.63;;;5.50;13.10;;;;;;5051721;28;20206;-57
2020/12/15 00:33:42;;;;;;;25.13;15.63;;;5.50;12.20;;;;;;5051841;28;20201;-55
2020/12/15 00:36:08;;;;;;;23.17;14.80;;;5.50;11.10;;;;;;5048653;28;20182;-58
2020/12/15 00:38:34;;;;;;;24.38;16.35;;;5.60;11.90;;;;;;5051857;28;20206;-55
2020/12/15 00:41:00;;;;;;;20.40;15.00;;;5.50;9.50;;;;;;5053884;28;20224;-56
2020/12/15 00:43:25;;;;;;;19.83;14.27;;;5.50;8.80;;;;;;5051491;28;20201;-57
2020/12/15 00:45:51;;;;;;;23.50;15.93;;;5.60;9.10;;;;;;5048639;28;20177;-58
2020/12/15 00:48:17;;;;;;;22.27;12.97;;;5.60;6.20;;;;;;5051534;28;20194;-57
2020/12/15 00:50:42;;;;;;;21.77;15.10;;;5.60;5.60;;;;;;5057583;28;20992;-58
2020/12/15 00:53:08;;;;;;;23.50;15.80;;;5.60;6.10;;;;;;5038004;28;20840;-58
2020/12/15 00:55:34;;;;;;;22.63;14.95;;;5.60;5.80;;;;;;5051538;28;20217;-56
2020/12/15 00:58:00;;;;;;;23.77;15.20;;;5.60;5.80;;;;;;5050327;28;20668;-55
2020/12/15 01:00:25;;;;;;;24.83;14.80;;;5.60;3.50;;;;;;5050622;28;20212;-55
2020/12/15 01:02:51;;;;;;;21.77;14.90;;;5.60;5.00;;;;;;5049729;28;20178;-53
2020/12/15 01:05:17;;;;;;;22.43;15.53;;;5.60;5.70;;;;;;5051101;28;20189;-55
2020/12/15 01:07:42;;;;;;;22.37;15.23;;;5.60;4.60;;;;;;5050071;28;20547;-56
2020/12/15 01:10:08;;;;;;;21.07;14.47;;;5.60;3.70;;;;;;5051068;28;20182;-56
2020/12/15 01:12:34;;;;;;;19.80;14.60;;;5.60;3.80;;;;;;5050958;28;20577;-59
2020/12/15 01:14:59;;;;;;;20.90;15.90;;;5.60;5.30;;;;;;5050279;28;20498;-56
2020/12/15 01:17:25;;;;;;;17.23;13.07;;;5.60;2.10;;;;;;5044356;28;20186;-56
2020/12/15 01:19:51;;;;;;;22.13;15.20;;;5.60;3.80;;;;;;5038433;28;20478;-55
2020/12/15 01:22:17;;;;;;;22.90;15.33;;;5.50;7.20;;;;;;5050416;28;20466;-53
2020/12/15 01:24:42;;;;;;;18.03;13.70;;;5.50;5.20;;;;;;5051565;28;20284;-53
2020/12/15 01:27:08;;;;;;;19.97;14.77;;;5.50;5.00;;;;;;5051101;28;20480;-55
2020/12/15 01:29:33;;;;;;;18.87;13.40;;;5.50;8.80;;;;;;5050021;28;20182;-56
2020/12/15 01:32:03;;;;;;;23.37;15.17;;;5.40;8.70;;;;;;5051126;28;20178;-58
2020/12/15 01:34:29;;;;;;;21.25;16.73;;;5.40;9.90;;;;;;5050846;28;20205;-58
2020/12/15 01:36:55;;;;;;;23.13;16.30;;;5.40;10.40;;;;;;5050874;28;20190;-57
2020/12/15 01:39:21;;;;;;;21.65;15.05;;;5.40;12.40;;;;;;5050206;28;20182;-56
2020/12/15 01:41:46;;;;;;;22.20;15.03;;;5.40;13.60;;;;;;5046808;28;20845;-57
2020/12/15 01:44:12;;;;;;;25.73;16.80;;;5.40;14.30;;;;;;5055968;28;20234;-55
2020/12/15 01:46:38;;;;;;;23.57;16.40;;;5.40;14.00;;;;;;5050356;28;20182;-54
2020/12/15 01:49:03;;;;;;;25.80;16.77;;;5.40;15.60;;;;;;5047438;28;20204;-55
2020/12/15 01:51:30;;;;;;;26.30;18.57;;;5.40;16.30;;;;;;5056448;28;20260;-56
2020/12/15 01:54:00;;;;;;;24.63;17.02;;;5.40;15.90;;;;;;5050761;28;20664;-58
2020/12/15 01:56:27;;;;;;;25.55;17.90;;;5.30;17.10;;;;;;5050117;28;20186;-55
2020/12/15 01:58:57;;;;;;;24.90;16.20;;;5.30;19.60;;;;;;5050134;28;20215;-53
2020/12/15 02:01:24;;;;;;;27.48;18.50;;;5.40;17.90;;;;;;5049868;28;20194;-55
2020/12/15 02:03:51;;;;;;;26.40;17.95;;;5.40;17.10;;;;;;5050161;28;20189;-55
2020/12/15 02:06:18;;;;;;;25.40;17.77;;;5.40;16.40;;;;;;5049156;28;20181;-56
2020/12/15 02:08:44;;;;;;;24.80;17.88;;;5.40;16.90;;;;;;5043556;28;20659;-58
2020/12/15 02:11:10;;;;;;;24.55;17.13;;;5.40;17.30;;;;;;5058571;28;20240;-56
2020/12/15 02:13:37;;;;;;;25.80;18.52;;;5.40;17.00;;;;;;5048847;28;20174;-53
2020/12/15 02:16:10;;;;;;;26.40;18.83;;;5.40;18.90;;;;;;5049628;28;20315;-57
2020/12/15 02:18:37;;;;;;;27.58;17.83;;;5.40;19.10;;;;;;5048649;28;20182;-54
2020/12/15 02:21:07;;;;;;;25.63;18.45;;;5.40;18.70;;;;;;5048267;28;20237;-57
2020/12/15 02:23:33;;;;;;;27.98;19.23;;;5.40;16.90;;;;;;5047542;28;20265;-56
2020/12/15 02:26:05;;;;;;;25.88;18.92;;;5.40;16.90;;;;;;5031198;28;20288;-53
2020/12/15 02:28:31;;;;;;;25.40;17.60;;;5.40;16.50;;;;;;5048953;28;20697;-54
2020/12/15 02:30:56;;;;;;;27.30;19.23;;;5.40;15.20;;;;;;5046284;28;20190;-55
2020/12/15 02:33:22;;;;;;;29.50;18.20;;;5.50;14.10;;;;;;5046533;28;20329;-53
2020/12/15 02:35:48;;;;;;;25.53;18.40;;;5.40;16.00;;;;;;5046813;28;20579;-52
2020/12/15 02:38:13;;;;;;;29.77;19.13;;;5.50;13.60;;;;;;5049675;28;20580;-55
2020/12/15 02:40:39;;;;;;;27.37;19.40;;;5.40;12.50;;;;;;5049385;28;20193;-54
2020/12/15 02:43:04;;;;;;;28.13;19.87;;;5.40;12.80;;;;;;5057734;28;20189;-57
2020/12/15 02:45:30;;;;;;;27.70;18.67;;;5.40;11.10;;;;;;5049183;28;20240;-55
2020/12/15 02:47:56;;;;;;;28.50;19.80;;;5.30;12.10;;;;;;5048339;28;20189;-55
2020/12/15 02:50:23;;;;;;;27.27;18.73;;;5.40;9.70;;;;;;5049130;28;20189;-56
2020/12/15 02:52:49;;;;;;;26.08;17.70;;;5.40;8.70;;;;;;5048911;28;20186;-54
2020/12/15 02:55:15;;;;;;;27.40;18.80;;;5.40;8.30;;;;;;5049248;28;20676;-55
2020/12/15 02:57:41;;;;;;;26.73;17.90;;;5.30;7.80;;;;;;5049666;28;20432;-57
2020/12/15 03:00:10;;;;;;;24.43;17.57;;;5.30;9.40;;;;;;5042680;28;20184;-55
2020/12/15 03:02:36;;;;;;;27.20;18.55;;;5.30;11.50;;;;;;5049150;28;20507;-55
2020/12/15 03:05:03;;;;;;;27.80;17.67;;;5.20;10.70;;;;;;5049083;28;20281;-54
2020/12/15 03:07:29;;;;;;;28.00;19.05;;;5.20;11.70;;;;;;5049006;28;20886;-54
2020/12/15 03:09:55;;;;;;;27.03;18.60;;;5.20;11.20;;;;;;5048986;28;20198;-54
2020/12/15 03:12:21;;;;;;;26.13;18.13;;;5.20;10.00;;;;;;5049216;28;20218;-55
2020/12/15 03:14:48;;;;;;;27.95;17.45;;;5.20;11.40;;;;;;5048963;28;20217;-56
2020/12/15 03:17:14;;;;;;;28.35;17.95;;;5.20;10.00;;;;;;5041376;28;20539;-55
2020/12/15 03:19:39;;;;;;;24.93;17.63;;;5.20;8.60;;;;;;5043948;28;20190;-56
2020/12/15 03:22:05;;;;;;;25.93;17.60;;;5.10;7.40;;;;;;5047975;28;20589;-57
2020/12/15 03:24:31;;;;;;;27.40;18.45;;;5.20;7.00;;;;;;5049383;28;20186;-52
2020/12/15 03:26:57;;;;;;;27.33;18.63;;;5.20;7.20;;;;;;5052308;28;20729;-55
2020/12/15 03:29:22;;;;;;;28.30;18.83;;;5.20;4.40;;;;;;5052522;28;20546;-56
2020/12/15 03:31:48;;;;;;;30.40;18.57;;;5.20;4.20;;;;;;5052830;28;20718;-56
2020/12/15 03:34:13;;;;;;;26.07;16.83;;;5.20;5.50;;;;;;5051056;28;20588;-58
2020/12/15 03:36:39;;;;;;;27.93;18.93;;;5.10;7.50;;;;;;5042282;28;20182;-57
2020/12/15 03:39:06;;;;;;;24.73;17.63;;;5.10;5.00;;;;;;5052587;28;20264;-55
2020/12/15 03:41:32;;;;;;;28.85;18.85;;;5.10;7.00;;;;;;5042372;28;20183;-56
2020/12/15 03:43:58;;;;;;;27.00;18.40;;;5.10;4.70;;;;;;5052556;28;20240;-55
2020/12/15 03:46:24;;;;;;;29.25;19.00;;;5.10;6.00;;;;;;5053065;28;21259;-57
2020/12/15 03:48:49;;;;;;;28.40;19.00;;;5.00;6.90;;;;;;5051704;28;20189;-56
2020/12/15 03:51:15;;;;;;;28.80;19.00;;;5.00;4.80;;;;;;5052471;28;20276;-56
2020/12/15 03:53:41;;;;;;;29.43;18.50;;;5.00;3.90;;;;;;5052527;28;20193;-56
2020/12/15 03:56:06;;;;;;;31.33;19.20;;;5.00;5.60;;;;;;5041367;28;20236;-53
2020/12/15 03:58:32;;;;;;;28.50;18.77;;;5.00;5.90;;;;;;5052740;28;20178;-55
2020/12/15 04:00:57;;;;;;;28.50;18.80;;;5.00;5.00;;;;;;5052372;28;20186;-55
2020/12/15 04:03:23;;;;;;;27.50;19.07;;;5.00;2.70;;;;;;5043958;28;20217;-57
2020/12/15 04:05:49;;;;;;;31.20;19.30;;;5.00;3.60;;;;;;5052293;28;20202;-55
2020/12/15 04:08:14;;;;;;;28.07;19.17;;;5.00;4.30;;;;;;5051071;28;20192;-58
2020/12/15 04:10:40;;;;;;;29.53;19.20;;;5.00;5.70;;;;;;5039314;28;20206;-58
2020/12/15 04:13:05;;;;;;;28.57;19.73;;;5.00;7.00;;;;;;5052284;28;20199;-53
2020/12/15 04:15:31;;;;;;;30.80;19.77;;;5.00;5.70;;;;;;5052113;28;20301;-56
2020/12/15 04:17:57;;;;;;;33.90;20.80;;;5.00;5.00;;;;;;5052602;28;20201;-54
2020/12/15 04:20:22;;;;;;;33.00;20.63;;;5.00;5.40;;;;;;5052116;28;20647;-57
2020/12/15 04:22:48;;;;;;;30.67;19.40;;;5.00;6.50;;;;;;5045877;28;20187;-56
2020/12/15 04:25:13;;;;;;;33.30;21.00;;;5.00;5.70;;;;;;5044454;28;20197;-55
2020/12/15 04:27:39;;;;;;;31.67;20.30;;;5.00;9.60;;;;;;5051382;28;20221;-54
2020/12/15 04:30:05;;;;;;;30.53;19.40;;;5.00;6.90;;;;;;5048294;28;20327;-55
2020/12/15 04:32:31;;;;;;;33.95;20.38;;;4.90;8.60;;;;;;5051561;28;20198;-53
2020/12/15 04:34:57;;;;;;;32.23;19.83;;;4.90;8.70;;;;;;5045493;28;20205;-55
2020/12/15 04:37:23;;;;;;;35.03;21.02;;;4.80;10.60;;;;;;5047724;28;20182;-57
2020/12/15 04:39:49;;;;;;;33.70;22.40;;;4.90;10.80;;;;;;5051704;28;20186;-57
2020/12/15 04:42:16;;;;;;;29.97;20.13;;;4.90;12.00;;;;;;5047640;28;20584;-53
2020/12/15 04:44:42;;;;;;;33.60;20.27;;;4.90;11.80;;;;;;5062249;28;20237;-55
2020/12/15 04:47:15;;;;;;;32.20;21.45;;;5.00;9.60;;;;;;5050038;28;20230;-53
2020/12/15 04:50:01;;;;;;;32.35;21.42;;;4.90;8.00;;;;;;5050648;28;20220;-56
2020/12/15 04:52:41;;;;;;;32.55;19.38;;;5.00;8.10;;;;;;5043722;28;20190;-53
2020/12/15 04:55:07;;;;;;;30.00;20.17;;;5.00;7.50;;;;;;5051475;28;20205;-53
2020/12/15 04:57:37;;;;;;;32.97;20.77;;;5.00;5.30;;;;;;5047935;28;20182;-55
2020/12/15 05:00:08;;;;;;;30.67;18.77;;;5.00;6.00;;;;;;5042249;28;20178;-57
2020/12/15 05:02:39;;;;;;;32.65;21.48;;;5.00;6.20;;;;;;5051463;28;20188;-55
2020/12/15 05:05:05;;;;;;;28.98;19.40;;;5.00;4.50;;;;;;5050187;28;20222;-55
2020/12/15 05:07:43;;;;;;;32.80;20.60;;;5.00;5.50;;;;;;5051134;28;20193;-56
2020/12/15 05:10:13;;;;;;;29.15;18.98;;;5.00;4.30;;;;;;5042456;28;20466;-56
2020/12/15 05:12:42;;;;;;;32.08;20.20;;;5.00;4.60;;;;;;5051301;28;20205;-58
2020/12/15 05:15:16;;;;;;;27.83;18.75;;;5.00;2.20;;;;;;5050931;28;20216;-57
2020/12/15 05:17:42;;;;;;;32.83;19.45;;;5.00;6.00;;;;;;5041950;28;20182;-54
2020/12/15 05:20:28;;;;;;;31.92;20.05;;;5.00;11.90;;;;;;5041562;28;20182;-56
2020/12/15 05:22:53;;;;;;;31.48;20.00;;;5.00;12.80;;;;;;5041717;28;20186;-56
2020/12/15 05:25:26;;;;;;;35.40;21.37;;;5.10;9.50;;;;;;5040821;28;20213;-55
2020/12/15 05:27:53;;;;;;;29.65;20.27;;;5.00;7.00;;;;;;5042089;28;20193;-56
2020/12/15 05:30:19;;;;;;;31.92;19.23;;;5.10;3.90;;;;;;5039090;28;20197;-56
2020/12/15 05:32:53;;;;;;;32.30;19.70;;;5.00;1.10;;;;;;5041054;28;20190;-57
2020/12/15 05:35:37;;;;;;;30.02;20.35;;;4.90;2.30;;;;;;5041913;28;20460;-57
2020/12/15 05:38:05;;;;;;;30.58;19.98;;;4.90;5.70;;;;;;5038079;28;20209;-57
2020/12/15 05:40:31;;;;;;;31.58;20.10;;;4.90;5.30;;;;;;5043755;28;20178;-56
2020/12/15 05:43:01;;;;;;;30.80;20.08;;;4.80;5.60;;;;;;5055244;28;20178;-55
2020/12/15 05:45:31;;;;;;;31.80;20.15;;;4.80;5.80;;;;;;5050065;28;20257;-53
2020/12/15 05:48:09;;;;;;;30.50;18.63;;;4.80;6.00;;;;;;5049594;28;20565;-54
2020/12/15 05:50:36;;;;;;;31.02;20.55;;;4.90;8.00;;;;;;5039754;28;20184;-56
2020/12/15 05:53:04;;;;;;;31.65;20.77;;;4.90;6.50;;;;;;5047491;28;20186;-56
2020/12/15 05:55:30;;;;;;;31.25;20.35;;;4.90;4.10;;;;;;5049448;28;20555;-54
2020/12/15 05:57:57;;;;;;;33.28;20.42;;;4.90;3.50;;;;;;5050195;28;20186;-54
2020/12/15 06:00:28;;;;;;;31.73;19.90;;;4.90;3.00;;;;;;5044766;28;20185;-53
2020/12/15 06:02:57;;;;;;;33.70;21.55;;;4.90;3.60;;;;;;5046124;28;20181;-53
2020/12/15 06:05:26;;;;;;;33.25;20.55;;;4.90;6.50;;;;;;5049897;28;20670;-57
2020/12/15 06:07:56;;;;;;;32.42;20.90;;;4.90;3.60;;;;;;5049332;28;20189;-55
2020/12/15 06:10:27;;;;;;;28.92;18.65;;;4.90;4.20;;;;;;5041293;28;20182;-53
2020/12/15 06:12:59;;;;;;;32.50;21.13;;;4.90;5.30;;;;;;5050206;28;20184;-54
2020/12/15 06:15:25;;;;;;;31.52;21.60;;;4.90;4.00;;;;;;5031586;28;20209;-55
2020/12/15 06:17:59;;;;;;;29.45;20.35;;;4.90;4.50;;;;;;5049918;28;20174;-52
2020/12/15 06:20:36;;;;;;;29.58;20.48;;;4.90;9.20;;;;;;5048722;28;20193;-57
2020/12/15 06:23:12;;;;;;;35.88;20.95;;;4.90;8.30;;;;;;5049066;28;20678;-56
2020/12/15 06:25:38;;;;;;;34.97;21.05;;;4.80;9.10;;;;;;5050702;28;20185;-53
2020/12/15 06:28:11;;;;;;;28.90;19.80;;;4.80;9.40;;;;;;5049514;28;20524;-55
2020/12/15 06:30:41;;;;;;;32.95;21.23;;;4.80;11.60;;;;;;5048391;28;20208;-56
2020/12/15 06:33:09;;;;;;;31.50;21.05;;;4.80;10.80;;;;;;5042827;28;20251;-55
2020/12/15 06:35:36;;;;;;;33.78;21.20;;;4.80;12.00;;;;;;5049178;28;20737;-57
2020/12/15 06:38:04;;;;;;;30.48;19.77;;;4.70;12.80;;;;;;5048417;28;20174;-52
2020/12/15 06:40:44;;;;;;;30.75;20.17;;;4.70;13.10;;;;;;5048821;28;20243;-54
2020/12/15 06:43:12;;;;;;;32.00;19.83;;;4.70;12.20;;;;;;5050121;28;20217;-55
2020/12/15 06:45:38;;;;;;;33.55;21.10;;;4.80;11.40;;;;;;5049275;28;20224;-56
2020/12/15 06:48:06;;;;;;;32.83;20.67;;;4.70;11.70;;;;;;5049208;28;20200;-53
2020/12/15 06:50:43;;;;;;;29.67;19.45;;;4.70;12.10;;;;;;5048714;28;20186;-55
2020/12/15 06:53:11;;;;;;;31.95;20.25;;;4.70;12.20;;;;;;5049103;28;20239;-54
2020/12/15 06:55:37;;;;;;;31.40;19.77;;;4.60;13.80;;;;;;5048400;28;20201;-56
2020/12/15 06:58:03;;;;;;;30.23;19.80;;;4.70;12.90;;;;;;5049236;28;20186;-54
2020/12/15 07:00:36;;;;;;;31.48;20.77;;;4.70;12.30;;;;;;5048309;28;20478;-55
2020/12/15 07:03:03;;;;;;;29.30;18.77;;;4.70;11.00;;;;;;5048806;28;20189;-55
2020/12/15 07:05:28;;;;;;;33.30;17.65;;;4.70;9.40;;;;;;5049102;28;20173;-55
2020/12/15 07:07:56;;;;;;;27.30;18.93;;;4.80;8.40;;;;;;5048415;28;20231;-52
2020/12/15 07:10:23;;;;;;;27.63;17.85;;;4.80;7.10;;;;;;5048318;28;20444;-58
2020/12/15 07:12:50;;;;;;;27.90;17.98;;;4.80;5.40;;;;;;5049690;28;20554;-55
2020/12/15 07:15:17;;;;;;;28.75;18.38;;;4.80;3.40;;;;;;5048749;28;20729;-57
2020/12/15 07:17:50;;;;;;;34.95;20.33;;;4.80;2.40;;;;;;5048797;28;20232;-55
2020/12/15 07:20:20;;;;;;;30.23;18.05;;;4.80;2.70;;;;;;5047942;28;20822;-56
2020/12/15 07:22:46;;;;;;;28.92;18.52;;;4.90;1.60;;;;;;5048806;28;20181;-55
2020/12/15 07:25:13;;;;;;;26.20;17.10;;;4.90;1.00;;;;;;5047309;28;20631;-57
2020/12/15 07:27:40;;;;;;;30.50;18.25;;;4.90;1.00;;;;;;5047891;28;20424;-58
2020/12/15 07:30:09;;;;;;;26.17;17.25;;;4.90;1.00;;;;;;5048304;28;20192;-58
2020/12/15 07:32:36;;;;;;;27.40;17.55;;;5.00;1.00;;;;;;5048538;28;20182;-58
2020/12/15 07:35:08;;;;;;;29.00;17.30;;;5.00;1.00;;;;;;5043166;28;20190;-55
2020/12/15 07:37:44;;;;;;;27.05;18.00;;;4.90;1.00;;;;;;5048194;28;20177;-58
2020/12/15 07:40:13;;;;;;;24.88;16.50;;;5.00;1.00;;;;;;5047481;28;20196;-56
2020/12/15 07:42:39;;;;;;;28.25;16.70;;;5.00;1.00;;;;;;5052776;28;20181;-57
2020/12/15 07:45:10;;;;;;;26.17;16.90;;;5.00;1.00;;;;;;5051401;28;20236;-56
2020/12/15 07:47:43;;;;;;;24.48;17.20;;;5.10;1.00;;;;;;5047851;28;20656;-58
2020/12/15 07:50:10;;;;;;;25.40;15.80;;;5.10;1.00;;;;;;5048085;28;20194;-56
2020/12/15 07:52:39;;;;;;;24.42;16.23;;;5.10;1.00;;;;;;5048156;28;20182;-56
2020/12/15 07:55:13;;;;;;;24.88;16.50;;;5.10;1.00;;;;;;5047441;28;20205;-55
2020/12/15 07:57:41;;;;;;;25.70;16.15;;;5.10;1.00;;;;;;5048096;28;20180;-55
2020/12/15 08:00:11;;;;;;;22.77;14.55;;;5.10;1.00;;;;;;5047869;28;20572;-53
2020/12/15 08:02:37;;;;;;;26.70;16.00;;;5.20;1.00;;;;;;5047197;28;20174;-57
2020/12/15 08:05:10;;;;;;;23.85;17.05;;;5.20;1.00;;;;;;5044995;28;20257;-57
2020/12/15 08:08:02;;;;;;;22.27;15.15;;;5.20;1.00;;;;;;5046752;28;20182;-56
2020/12/15 08:10:29;;;;;;;25.30;16.85;;;5.20;1.00;;;;;;5043613;28;20719;-56
2020/12/15 08:12:56;;;;;;;25.55;15.20;;;5.20;1.00;;;;;;5048543;28;20189;-56
2020/12/15 08:15:22;;;;;;;21.85;15.02;;;5.20;1.00;;;;;;5047346;28;20201;-58
2020/12/15 08:17:49;;;;;;;25.25;16.23;;;5.20;1.00;;;;;;5050079;28;20166;-56
2020/12/15 08:20:16;;;;;;;21.10;14.48;;;5.20;1.00;;;;;;5046251;28;20190;-56
2020/12/15 08:22:43;;;;;;;22.27;15.13;;;5.20;1.00;;;;;;5049484;28;20276;-54
2020/12/15 08:25:15;;;;;;;23.27;14.63;;;5.30;1.00;;;;;;5050366;28;20231;-56
2020/12/15 08:27:41;;;;;;;23.20;14.50;;;5.20;1.00;;;;;;5051079;28;20238;-58
2020/12/15 08:30:22;;;;;;;21.90;14.70;;;5.30;1.00;;;;;;5049823;28;20217;-55
2020/12/15 08:32:49;;;;;;;24.95;15.45;;;5.30;1.00;;;;;;5050951;28;20185;-56
2020/12/15 08:35:22;;;;;;;23.02;14.40;;;5.40;1.00;;;;;;5050525;28;20560;-58
2020/12/15 08:37:54;;;;;;;24.23;16.38;;;5.30;1.00;;;;;;5051034;28;20196;-60
2020/12/15 08:40:20;;;;;;;22.80;15.18;;;5.40;1.00;;;;;;5049975;28;20625;-58
2020/12/15 08:42:47;;;;;;;22.70;14.85;;;5.40;1.00;;;;;;5056264;28;20202;-57
2020/12/15 08:45:17;;;;;;;20.52;14.25;;;5.40;1.00;;;;;;5045991;28;20961;-57
2020/12/15 08:47:47;;;;;;;22.17;14.85;;;5.50;1.00;;;;;;5048013;28;20186;-59
2020/12/15 08:50:14;;;;;;;25.90;14.93;;;5.50;1.00;;;;;;5048979;28;20684;-54
2020/12/15 08:52:41;;;;;;;24.33;15.05;;;5.50;1.00;;;;;;5043686;28;20186;-56
2020/12/15 08:55:07;;;;;;;21.70;15.00;;;5.50;1.00;;;;;;5050253;28;20537;-58
2020/12/15 08:57:32;;;;;;;23.10;14.77;;;5.50;1.00;;;;;;5049920;28;20189;-59
2020/12/15 09:00:10;;;;;;;22.07;14.60;;;5.60;1.00;;;;;;5050532;28;20417;-58
2020/12/15 09:02:36;;;;;;;24.65;16.88;;;5.60;1.00;;;;;;5042586;28;20460;-59
2020/12/15 09:05:06;;;;;;;23.47;15.07;;;5.60;1.00;;;;;;5050465;28;20236;-59
2020/12/15 09:07:32;;;;;;;17.90;13.65;;;5.60;1.00;;;;;;5046801;28;20189;-58
2020/12/15 09:10:15;;;;;;;22.70;14.90;;;5.60;1.00;;;;;;5050070;28;20211;-56
2020/12/15 09:12:45;;;;;;;26.83;14.82;;;5.70;1.00;;;;;;5033515;28;20285;-58
2020/12/15 09:15:11;;;;;;;23.38;15.25;;;5.60;1.00;;;;;;5042814;28;20217;-58
2020/12/15 09:17:37;;;;;;;23.47;15.40;;;5.60;1.00;;;;;;5050319;28;20178;-59
2020/12/15 09:20:05;;;;;;;21.73;15.43;;;5.60;1.00;;;;;;5049724;28;20425;-58
2020/12/15 09:22:31;;;;;;;24.80;15.13;;;5.80;1.00;;;;;;5049762;28;20244;-56
2020/12/15 09:25:01;;;;;;;22.15;14.43;;;5.80;1.00;;;;;;5049308;28;20182;-57
2020/12/15 09:27:27;;;;;;;23.65;15.10;;;6.00;1.00;;;;;;5050239;28;20192;-58
2020/12/15 09:29:53;;;;;;;21.83;14.40;;;6.10;1.00;;;;;;5048647;28;20186;-59
2020/12/15 09:32:19;;;;;;;21.17;13.70;;;6.10;1.00;;;;;;5032478;28;20440;-58
2020/12/15 09:34:46;;;;;;;20.23;13.65;;;6.20;1.00;;;;;;5049597;28;20198;-58
2020/12/15 09:37:12;;;;;;;21.45;14.00;;;6.30;1.00;;;;;;5033524;28;20182;-59
2020/12/15 09:39:39;;;;;;;20.33;14.63;;;6.40;1.00;;;;;;5044329;28;20228;-55
2020/12/15 09:42:05;;;;;;;21.42;14.27;;;6.60;1.00;;;;;;5048130;28;20467;-57
2020/12/15 09:44:31;;;;;;;20.63;14.17;;;6.90;1.00;;;;;;5036895;28;20277;-56
2020/12/15 09:46:57;;;;;;;20.88;14.70;;;7.10;1.00;;;;;;5049245;28;20420;-57
2020/12/15 09:49:23;;;;;;;20.50;15.05;;;7.10;99.90;;;;;;5049835;28;20745;-58
2020/12/15 09:51:49;;;;;;;21.47;14.30;;;7.10;99.90;;;;;;5047823;28;20195;-57
2020/12/15 09:54:15;;;;;;;20.00;13.70;;;7.10;99.90;;;;;;5036538;28;20990;-59
2020/12/15 09:56:44;;;;;;;23.03;15.13;;;7.10;99.90;;;;;;5036316;28;20250;-59
2020/12/15 09:59:14;;;;;;;21.75;14.70;;;7.10;1.00;;;;;;5049001;28;20170;-58
2020/12/15 10:01:44;;;;;;;20.33;14.02;;;7.00;1.00;;;;;;5049362;28;20236;-58
2020/12/15 10:04:10;;;;;;;19.90;14.07;;;7.00;1.00;;;;;;5049632;28;20213;-59
2020/12/15 10:06:40;;;;;;;20.93;14.20;;;6.80;1.00;;;;;;5032217;28;20602;-57
2020/12/15 10:09:06;;;;;;;20.02;14.77;;;6.80;1.00;;;;;;5049674;28;20596;-58
2020/12/15 10:11:32;;;;;;;24.40;15.57;;;6.70;1.00;;;;;;5047390;28;20717;-57
2020/12/15 10:13:58;;;;;;;22.17;13.65;;;6.60;1.00;;;;;;5043325;28;20611;-58
2020/12/15 10:16:24;;;;;;;21.03;14.67;;;6.60;1.00;;;;;;5049192;28;20269;-57
2020/12/15 10:18:49;;;;;;;22.60;13.70;;;6.60;1.00;;;;;;5048385;28;20641;-56
2020/12/15 10:21:18;;;;;;;22.53;14.23;;;6.60;1.00;;;;;;5049075;28;20186;-58
2020/12/15 10:23:47;;;;;;;20.27;14.60;;;6.70;1.00;;;;;;5048792;28;20190;-57
2020/12/15 10:26:18;;;;;;;20.27;14.38;;;6.70;1.00;;;;;;5045475;28;20202;-55
2020/12/15 10:28:44;;;;;;;22.48;15.23;;;6.70;1.00;;;;;;5030886;28;20183;-57
2020/12/15 10:31:10;;;;;;;18.88;14.25;;;6.60;1.00;;;;;;5047677;28;20197;-60
2020/12/15 10:33:36;;;;;;;22.80;14.43;;;6.60;1.00;;;;;;5049367;28;20171;-58
2020/12/15 10:36:02;;;;;;;22.60;14.20;;;6.60;1.00;;;;;;5044137;28;20205;-58
2020/12/15 10:38:28;;;;;;;17.45;13.13;;;6.60;1.00;;;;;;5044804;28;20190;-58
2020/12/15 10:40:53;;;;;;;20.30;14.73;;;6.60;1.00;;;;;;5048684;28;20180;-58
2020/12/15 10:43:19;;;;;;;19.20;13.90;;;6.50;1.00;;;;;;5055810;28;20817;-58
2020/12/15 10:45:45;;;;;;;21.30;13.93;;;6.40;1.00;;;;;;5048927;28;20229;-54
2020/12/15 10:48:10;;;;;;;18.60;13.50;;;6.40;1.00;;;;;;5048774;28;20193;-52
2020/12/15 10:50:36;;;;;;;21.97;14.30;;;6.40;1.00;;;;;;5047832;28;20209;-57
2020/12/15 10:53:04;;;;;;;20.47;13.97;;;6.40;1.00;;;;;;5048400;28;20175;-59
2020/12/15 10:55:29;;;;;;;20.55;13.73;;;6.40;1.00;;;;;;5046088;28;20307;-57
2020/12/15 10:57:55;;;;;;;18.63;12.80;;;6.40;1.00;;;;;;5048877;28;20202;-58
2020/12/15 11:00:20;;;;;;;20.13;13.37;;;6.40;1.00;;;;;;5047846;28;20304;-53
2020/12/15 11:02:46;;;;;;;18.77;13.20;;;6.40;1.00;;;;;;5045920;28;20186;-58
2020/12/15 11:05:12;;;;;;;18.93;14.10;;;6.50;1.00;;;;;;5041824;28;20196;-55
2020/12/15 11:07:37;;;;;;;20.60;13.37;;;6.50;1.00;;;;;;5043865;28;20190;-58
2020/12/15 11:10:03;;;;;;;18.50;12.20;;;6.60;1.00;;;;;;5045472;28;20272;-58
2020/12/15 11:12:28;;;;;;;21.00;14.20;;;6.60;1.00;;;;;;5048448;28;20205;-59
2020/12/15 11:14:54;;;;;;;18.73;12.80;;;6.60;1.00;;;;;;5052970;28;20287;-58
2020/12/15 11:17:19;;;;;;;17.83;12.13;;;6.70;1.00;;;;;;5048480;28;20264;-56
2020/12/15 11:19:45;;;;;;;17.20;12.10;;;7.00;1.00;;;;;;5047546;28;20190;-58
2020/12/15 11:22:11;;;;;;;16.77;12.80;;;7.50;99.90;;;;;;5045964;28;20389;-59
2020/12/15 11:24:37;;;;;;;15.40;12.20;;;8.20;1.00;;;;;;5035286;28;20197;-58
2020/12/15 11:27:02;;;;;;;20.60;12.33;;;8.90;1.00;;;;;;5047427;28;20189;-54
2020/12/15 11:29:28;;;;;;;17.50;12.50;;;9.40;99.90;;;;;;5047913;28;20945;-59
2020/12/15 11:31:54;;;;;;;15.83;12.47;;;9.40;1.00;;;;;;5047403;28;20436;-58
2020/12/15 11:34:20;;;;;;;17.80;12.63;;;9.20;99.90;;;;;;5048044;28;20634;-58
2020/12/15 11:36:46;;;;;;;17.67;12.90;;;9.10;99.90;;;;;;5048084;28;20264;-55
2020/12/15 11:39:14;;;;;;;15.40;12.27;;;8.80;1.00;;;;;;5047240;28;21060;-58
2020/12/15 11:41:39;;;;;;;17.43;13.60;;;8.70;1.00;;;;;;5047829;28;20431;-56
2020/12/15 11:44:06;;;;;;;17.10;12.20;;;8.50;99.90;;;;;;5037526;28;20863;-59
2020/12/15 11:46:32;;;;;;;17.77;12.67;;;8.40;1.00;;;;;;5048295;28;20184;-56
2020/12/15 11:48:57;;;;;;;17.93;13.03;;;8.20;1.00;;;;;;5056664;28;20456;-57
2020/12/15 11:51:23;;;;;;;16.60;12.00;;;8.20;1.00;;;;;;5052506;28;20199;-59
2020/12/15 11:53:48;;;;;;;18.20;12.90;;;8.00;1.00;;;;;;5051777;28;20272;-57
2020/12/15 11:56:18;;;;;;;15.43;12.80;;;8.00;1.00;;;;;;5049118;28;20193;-58
2020/12/15 11:58:45;;;;;;;18.17;12.57;;;7.90;99.90;;;;;;5046607;28;20184;-57
2020/12/15 12:01:11;;;;;;;18.30;13.70;;;7.80;1.00;;;;;;5053045;28;20427;-58
2020/12/15 12:03:36;;;;;;;18.27;13.00;;;7.80;92.60;;;;;;5051209;28;20431;-57
2020/12/15 12:06:03;;;;;;;16.30;12.67;;;7.60;1.00;;;;;;5058797;28;20439;-61
2020/12/15 12:08:28;;;;;;;20.80;13.35;;;7.60;1.00;;;;;;5052565;28;20193;-59
2020/12/15 12:10:54;;;;;;;16.13;12.40;;;7.50;99.90;;;;;;5050353;28;20242;-58
2020/12/15 12:13:20;;;;;;;19.07;13.73;;;7.50;99.90;;;;;;5050864;28;20188;-59
2020/12/15 12:15:45;;;;;;;16.97;13.00;;;7.60;1.00;;;;;;5052998;28;20593;-59
2020/12/15 12:18:11;;;;;;;17.10;12.97;;;7.60;99.90;;;;;;5051332;28;20187;-58
2020/12/15 12:20:36;;;;;;;16.63;12.83;;;7.70;99.90;;;;;;5051292;28;20581;-59
2020/12/15 12:23:03;;;;;;;17.03;13.03;;;7.60;99.90;;;;;;5051489;28;20183;-58
2020/12/15 12:25:29;;;;;;;19.00;13.40;;;7.70;1.00;;;;;;5051337;28;20665;-58
2020/12/15 12:27:55;;;;;;;18.60;13.07;;;7.70;99.90;;;;;;5051426;28;20237;-60
2020/12/15 12:30:21;;;;;;;17.83;13.57;;;7.70;99.90;;;;;;5050936;28;20550;-60
2020/12/15 12:32:46;;;;;;;17.55;13.55;;;7.70;99.90;;;;;;5051427;28;20442;-60
2020/12/15 12:35:12;;;;;;;20.07;13.83;;;7.70;99.90;;;;;;5050897;28;20202;-60
2020/12/15 12:37:38;;;;;;;15.93;12.83;;;7.80;99.90;;;;;;5051204;28;20174;-57
2020/12/15 12:40:05;;;;;;;19.70;13.53;;;7.80;99.90;;;;;;5050908;28;20431;-60
2020/12/15 12:42:31;;;;;;;19.50;13.37;;;8.10;1.00;;;;;;5051010;28;20442;-55
2020/12/15 12:44:56;;;;;;;20.77;13.97;;;8.30;99.90;;;;;;5050633;28;20487;-56